Time;durP1;ratioP1;P1;durP2;ratioP2;P2;SDS_P1;SDS_P2;PMS_P1;PMS_P2;Temp;Humidity;BMP_temperature;BMP_pressure;BME280_temperature;BME280_humidity;BME280_pressure;Samples;Min_cycle;Max_cycle;Signal;HPM_P1;HPM_P2
2022/08/18 00:01:04;;;;;;;4.00;3.60;;;;;;;24.03;50.73;100754.06;5094827;28;20453;-71
2022/08/18 00:03:29;;;;;;;3.55;3.25;;;;;;;24.03;50.15;100743.97;5113858;28;20024;-71
2022/08/18 00:05:55;;;;;;;4.03;3.72;;;;;;;24.03;50.63;100749.41;5114650;28;20506;-71
2022/08/18 00:08:20;;;;;;;3.35;3.05;;;;;;;24.03;50.51;100754.06;5113855;28;20015;-71
2022/08/18 00:10:46;;;;;;;3.30;3.10;;;;;;;24.03;50.49;100743.97;5113882;28;20368;-71
2022/08/18 00:13:11;;;;;;;3.38;3.08;;;;;;;24.03;50.54;100749.41;5113858;28;20028;-72
2022/08/18 00:15:37;;;;;;;3.97;3.67;;;;;;;24.03;50.79;100749.41;5114476;28;20484;-71
2022/08/18 00:18:02;;;;;;;3.42;3.13;;;;;;;24.02;50.83;100745.03;5114624;28;20024;-71
2022/08/18 00:20:28;;;;;;;3.90;3.60;;;;;;;24.02;50.61;100745.03;5115129;28;20055;-71
2022/08/18 00:22:55;;;;;;;3.55;3.25;;;;;;;24.00;50.73;100741.75;5116099;28;20024;-71
2022/08/18 00:25:21;;;;;;;4.00;3.70;;;;;;;24.00;50.96;100744.50;5116228;28;20019;-71
2022/08/18 00:27:46;;;;;;;3.50;3.20;;;;;;;24.00;50.73;100745.31;5116125;28;20028;-71
2022/08/18 00:30:14;;;;;;;3.70;3.40;;;;;;;24.00;50.78;100741.75;5110327;28;20032;-71
2022/08/18 00:32:42;;;;;;;3.47;3.17;;;;;;;23.99;50.98;100740.94;5099412;28;20107;-71
2022/08/18 00:35:17;;;;;;;3.95;3.65;;;;;;;23.99;50.80;100746.41;5094032;28;20028;-71
2022/08/18 00:37:42;;;;;;;3.50;3.20;;;;;;;24.00;51.05;100748.03;5093122;28;20032;-71
2022/08/18 00:40:10;;;;;;;3.63;3.33;;;;;;;23.97;50.99;100743.13;5093142;28;20034;-71
2022/08/18 00:42:42;;;;;;;4.20;3.80;;;;;;;23.97;50.79;100750.47;5093131;28;20024;-71
2022/08/18 00:45:08;;;;;;;3.72;3.42;;;;;;;23.98;51.11;100752.13;5075591;28;20035;-71
2022/08/18 00:47:34;;;;;;;3.67;3.38;;;;;;;23.98;51.15;100747.47;5057887;28;20084;-71
2022/08/18 00:49:59;;;;;;;3.55;3.25;;;;;;;23.95;50.96;100749.94;5093046;28;20450;-71
2022/08/18 00:52:25;;;;;;;3.70;3.40;;;;;;;23.97;51.09;100755.94;5092802;28;20440;-71
2022/08/18 00:54:50;;;;;;;3.72;3.42;;;;;;;23.95;51.25;100763.59;5092660;28;20451;-71
2022/08/18 00:57:17;;;;;;;4.10;3.70;;;;;;;23.97;51.22;100764.97;5058045;28;20028;-71
2022/08/18 00:59:49;;;;;;;3.40;3.10;;;;;;;23.95;50.70;100771.78;5092984;28;20370;-71
2022/08/18 01:02:25;;;;;;;3.40;3.10;;;;;;;23.95;50.98;100769.03;5058445;28;20129;-71
2022/08/18 01:05:20;;;;;;;3.38;3.08;;;;;;;23.99;51.42;100775.59;5075430;28;20044;-71
2022/08/18 01:07:46;;;;;;;3.47;3.17;;;;;;;23.98;51.03;100768.50;4990899;28;20170;-71
2022/08/18 01:10:15;;;;;;;3.30;3.00;;;;;;;23.95;51.09;100758.94;4991300;28;20034;-71
2022/08/18 01:12:42;;;;;;;3.83;3.53;;;;;;;23.94;51.31;100756.47;4992357;28;20116;-71
2022/08/18 01:15:08;;;;;;;3.85;3.55;;;;;;;23.93;51.26;100760.31;4994580;28;20473;-71
2022/08/18 01:23:13;;;;;;;4.00;3.60;;;;;;;23.93;51.14;100772.03;4994612;28;20503;-71
2022/08/18 01:28:23;;;;;;;3.60;3.30;;;;;;;23.94;51.54;100772.84;4994749;28;20042;-71
2022/08/18 01:30:50;;;;;;;3.42;3.13;;;;;;;23.91;51.17;100774.22;4994168;28;20042;-71
2022/08/18 01:33:16;;;;;;;3.45;3.15;;;;;;;23.91;51.33;100784.31;4993950;28;20141;-71
2022/08/18 01:35:42;;;;;;;3.30;3.00;;;;;;;23.92;51.50;100775.03;4993980;28;20150;-71
2022/08/18 01:38:08;;;;;;;3.78;3.47;;;;;;;23.91;51.30;100776.13;4994316;28;20115;-71
2022/08/18 01:40:33;;;;;;;3.67;3.38;;;;;;;23.89;51.41;100761.94;4993891;28;20033;-71
2022/08/18 01:43:02;;;;;;;3.80;3.50;;;;;;;23.89;51.27;100762.75;4993964;28;20027;-71
2022/08/18 01:45:28;;;;;;;4.20;3.80;;;;;;;23.89;51.74;100767.41;5085682;28;20036;-71
2022/08/18 01:47:54;;;;;;;3.95;3.50;;;;;;;23.89;51.34;100768.22;5095381;28;20020;-71
2022/08/18 01:50:20;;;;;;;4.07;3.67;;;;;;;23.88;51.31;100763.81;5095789;28;20082;-71
2022/08/18 01:52:45;;;;;;;3.50;3.20;;;;;;;23.90;51.51;100771.75;5095786;28;20032;-71
2022/08/18 01:55:10;;;;;;;3.60;3.30;;;;;;;23.89;51.49;100770.94;5095200;28;20096;-71
2022/08/18 01:57:43;;;;;;;3.60;3.30;;;;;;;23.89;51.59;100775.59;5095454;28;20035;-71
2022/08/18 02:00:13;;;;;;;3.65;3.35;;;;;;;23.88;51.44;100758.38;5095442;28;20060;-71
2022/08/18 02:02:38;;;;;;;3.55;3.25;;;;;;;23.88;51.70;100763.00;5095510;28;20020;-71
2022/08/18 02:05:08;;;;;;;4.22;3.88;;;;;;;23.86;51.57;100760.56;5096085;28;20081;-71
2022/08/18 02:07:34;;;;;;;3.90;3.60;;;;;;;23.88;51.36;100754.81;5095651;28;20051;-71
2022/08/18 02:09:59;;;;;;;3.63;3.33;;;;;;;23.87;51.52;100753.19;5060482;28;20035;-71
2022/08/18 02:12:25;;;;;;;4.03;3.63;;;;;;;23.87;51.79;100751.28;5095308;28;20024;-71
2022/08/18 02:14:51;;;;;;;4.03;3.72;;;;;;;23.88;51.66;100752.09;5095628;28;20021;-71
2022/08/18 02:17:17;;;;;;;4.03;3.67;;;;;;;23.87;51.71;100751.28;5094896;28;20032;-71
2022/08/18 02:19:44;;;;;;;3.85;3.55;;;;;;;23.88;51.90;100749.38;5095042;28;20028;-71
2022/08/18 02:22:12;;;;;;;3.67;3.38;;;;;;;23.87;52.00;100756.75;5094969;28;20020;-71
2022/08/18 02:24:37;;;;;;;3.97;3.67;;;;;;;23.86;52.01;100743.38;5094681;28;20107;-71
2022/08/18 02:27:03;;;;;;;3.72;3.42;;;;;;;23.86;51.76;100743.38;5094917;28;20536;-71
2022/08/18 02:29:29;;;;;;;4.05;3.65;;;;;;;23.87;52.00;100750.44;5097531;28;20434;-71
2022/08/18 02:31:54;;;;;;;3.67;3.38;;;;;;;23.83;51.86;100741.97;5115359;28;20023;-71
2022/08/18 02:34:20;;;;;;;3.72;3.42;;;;;;;23.84;51.91;100740.09;5115307;28;20052;-71
2022/08/18 02:36:45;;;;;;;3.72;3.42;;;;;;;23.86;51.74;100743.38;5114802;28;20015;-71
2022/08/18 02:39:10;;;;;;;4.00;3.70;;;;;;;23.86;51.80;100737.91;5114770;28;20020;-71
2022/08/18 02:41:36;;;;;;;4.00;3.67;;;;;;;23.84;51.60;100743.63;5114966;28;20373;-71
2022/08/18 02:44:02;;;;;;;3.63;3.33;;;;;;;23.84;51.76;100754.53;5114661;28;20461;-71
2022/08/18 02:46:27;;;;;;;3.97;3.67;;;;;;;23.83;51.90;100755.63;5114917;28;20019;-71
2022/08/18 02:48:53;;;;;;;3.65;3.35;;;;;;;23.85;51.98;100747.16;5115220;28;20411;-71
2022/08/18 02:51:19;;;;;;;4.15;3.78;;;;;;;23.83;51.88;100743.91;5115234;28;20028;-71
2022/08/18 02:53:45;;;;;;;3.70;3.40;;;;;;;23.83;52.08;100749.34;5115194;28;20381;-71
2022/08/18 02:58:41;;;;;;;4.00;3.60;;;;;;;23.83;51.90;100744.72;5115201;28;20055;-71
2022/08/18 03:01:07;;;;;;;3.80;3.50;;;;;;;23.83;51.90;100741.16;5114552;28;20030;-70
2022/08/18 03:03:32;;;;;;;3.83;3.53;;;;;;;23.84;51.81;100746.34;5114685;28;20016;-71
2022/08/18 03:05:57;;;;;;;3.83;3.53;;;;;;;23.85;52.16;100741.72;5114733;28;20504;-71
2022/08/18 03:08:23;;;;;;;3.72;3.42;;;;;;;23.88;52.00;100760.28;5114635;28;20397;-72
2022/08/18 03:10:51;;;;;;;3.80;3.50;;;;;;;23.86;51.83;100754.28;5114491;28;20410;-71
2022/08/18 03:13:17;;;;;;;3.42;3.13;;;;;;;23.90;52.07;100763.56;5095974;28;20023;-71
2022/08/18 03:15:43;;;;;;;3.88;3.58;;;;;;;23.90;52.14;100760.84;5114344;28;20073;-71
2022/08/18 03:18:10;;;;;;;3.58;3.28;;;;;;;23.90;52.13;100761.66;5114387;28;20023;-71
2022/08/18 03:20:36;;;;;;;4.00;3.20;;;;;;;23.91;52.28;100755.09;5096626;28;20032;-71
2022/08/18 03:23:02;;;;;;;3.53;3.22;;;;;;;23.94;52.28;100761.94;5096237;28;20345;-71
2022/08/18 03:25:28;;;;;;;3.80;3.50;;;;;;;23.95;52.23;100769.03;5114336;28;20084;-71
2022/08/18 03:27:53;;;;;;;3.60;3.30;;;;;;;23.97;52.02;100772.31;5095707;28;20023;-71
2022/08/18 03:30:20;;;;;;;3.50;3.20;;;;;;;23.97;51.81;100766.84;5105951;28;20035;-71
2022/08/18 03:32:46;;;;;;;4.00;3.70;;;;;;;24.00;52.08;100771.78;5093781;28;20024;-71
2022/08/18 03:35:13;;;;;;;4.13;3.83;;;;;;;23.97;52.33;100773.16;5092958;28;20035;-70
2022/08/18 03:37:39;;;;;;;4.30;4.00;;;;;;;24.02;52.11;100777.78;5093550;28;20514;-70
2022/08/18 03:40:05;;;;;;;4.15;3.75;;;;;;;24.05;52.18;100782.72;5093683;28;20028;-70
2022/08/18 03:42:30;;;;;;;5.57;5.07;;;;;;;24.06;51.94;100787.09;5094004;28;20522;-70
2022/08/18 03:44:56;;;;;;;5.55;5.13;;;;;;;24.07;51.86;100782.47;5093656;28;20020;-71
2022/08/18 03:47:21;;;;;;;5.78;5.28;;;;;;;24.08;52.35;100776.72;5093580;28;20087;-70
2022/08/18 03:49:47;;;;;;;5.60;5.10;;;;;;;24.10;52.15;100777.28;5093638;28;20024;-70
2022/08/18 03:52:13;;;;;;;6.00;5.50;;;;;;;24.09;52.17;100775.63;5093455;28;20481;-70
2022/08/18 03:54:40;;;;;;;5.43;5.03;;;;;;;24.10;52.25;100781.94;5093297;28;20063;-70
2022/08/18 03:57:09;;;;;;;4.82;4.43;;;;;;;24.14;51.67;100774.81;5093398;28;20024;-70
2022/08/18 03:59:34;;;;;;;5.03;4.63;;;;;;;24.14;51.86;100772.91;5093268;28;20028;-71
2022/08/18 04:02:01;;;;;;;4.85;4.45;;;;;;;24.14;52.18;100783.84;5093547;28;20031;-71
2022/08/18 04:04:27;;;;;;;5.32;4.82;;;;;;;24.15;51.87;100785.50;5093601;28;20028;-71
2022/08/18 04:06:57;;;;;;;4.93;4.53;;;;;;;24.17;51.89;100777.84;5093355;28;20028;-71
2022/08/18 04:09:23;;;;;;;4.40;4.05;;;;;;;24.19;51.63;100781.13;5093321;28;20016;-71
2022/08/18 04:11:49;;;;;;;4.50;4.10;;;;;;;24.18;51.78;100779.50;5093499;28;20153;-71
2022/08/18 04:14:16;;;;;;;3.65;3.35;;;;;;;24.19;51.79;100770.19;5093387;28;20059;-71
2022/08/18 04:16:42;;;;;;;3.90;3.60;;;;;;;24.21;52.18;100771.84;5093185;28;20466;-70
2022/08/18 04:19:08;;;;;;;3.55;3.25;;;;;;;24.22;51.72;100773.50;5093461;28;20062;-71
2022/08/18 04:21:35;;;;;;;3.63;3.33;;;;;;;24.23;52.07;100775.13;5092997;28;20048;-70
2022/08/18 04:24:04;;;;;;;3.88;3.58;;;;;;;24.23;52.03;100775.94;5093476;28;20048;-71
2022/08/18 04:26:34;;;;;;;3.70;3.40;;;;;;;24.26;51.39;100774.59;5093328;28;20114;-70
2022/08/18 04:29:00;;;;;;;3.90;3.60;;;;;;;24.26;51.68;100775.41;5093655;28;20016;-70
2022/08/18 04:31:26;;;;;;;3.75;3.45;;;;;;;24.27;51.58;100782.50;5091707;28;20030;-71
2022/08/18 04:33:51;;;;;;;3.47;3.17;;;;;;;24.27;51.59;100792.63;5113326;28;20077;-71
2022/08/18 04:36:17;;;;;;;3.70;3.40;;;;;;;24.28;51.79;100789.59;5113867;28;20020;-71
2022/08/18 04:38:42;;;;;;;3.70;3.40;;;;;;;24.27;51.82;100789.91;5114134;28;20035;-71
2022/08/18 04:41:09;;;;;;;3.70;3.40;;;;;;;24.31;51.29;100793.72;5113398;28;20101;-71
2022/08/18 04:43:35;;;;;;;3.53;3.22;;;;;;;24.32;51.43;100793.44;5113962;28;20412;-71
2022/08/18 04:46:00;;;;;;;3.28;3.00;;;;;;;24.30;52.01;100789.34;5114458;28;20092;-72
2022/08/18 04:48:34;;;;;;;3.42;3.13;;;;;;;24.27;51.75;100798.91;5117809;28;20437;-71
2022/08/18 04:51:12;;;;;;;3.60;3.30;;;;;;;24.33;51.54;100802.47;5117616;28;20445;-71
2022/08/18 04:53:44;;;;;;;3.58;3.28;;;;;;;24.28;51.11;100803.25;5118374;28;20058;-72
2022/08/18 04:56:20;;;;;;;3.58;3.28;;;;;;;24.27;51.24;100796.16;5120119;28;20126;-71
2022/08/18 04:58:50;;;;;;;3.40;3.10;;;;;;;24.32;51.22;100804.38;5125259;28;20036;-69
2022/08/18 05:01:17;;;;;;;3.70;3.40;;;;;;;24.32;51.15;100806.31;5127121;28;20024;-72
2022/08/18 05:03:43;;;;;;;3.08;2.88;;;;;;;24.35;51.52;100808.47;5124288;28;20020;-71
2022/08/18 05:06:09;;;;;;;3.53;3.22;;;;;;;24.37;51.88;100809.03;5124118;28;20054;-71
2022/08/18 05:08:34;;;;;;;3.25;3.05;;;;;;;24.37;51.05;100809.84;5101386;28;20019;-71
2022/08/18 05:11:01;;;;;;;3.60;3.30;;;;;;;24.35;50.96;100817.50;5121834;28;20311;-72
2022/08/18 05:13:26;;;;;;;3.13;2.92;;;;;;;24.39;51.35;100812.31;5083223;28;20032;-70
2022/08/18 05:15:53;;;;;;;3.42;3.00;;;;;;;24.37;50.80;100817.25;5117365;28;20020;-70
2022/08/18 05:18:20;;;;;;;3.30;3.10;;;;;;;24.36;51.25;100810.13;5116853;28;20043;-70
2022/08/18 05:20:46;;;;;;;3.30;3.05;;;;;;;24.34;51.79;100807.66;5098380;28;20042;-71
2022/08/18 05:23:11;;;;;;;2.97;2.78;;;;;;;24.41;51.04;100814.78;5117189;28;20031;-71
2022/08/18 05:25:38;;;;;;;4.30;3.22;;;;;;;24.39;51.38;100817.78;5117092;28;20095;-72
2022/08/18 05:28:04;;;;;;;3.50;3.20;;;;;;;24.43;51.61;100818.88;5116614;28;20047;-71
2022/08/18 05:30:29;;;;;;;4.00;3.60;;;;;;;24.35;51.73;100816.66;5109088;28;20027;-71
2022/08/18 05:32:55;;;;;;;3.40;3.03;;;;;;;24.39;51.92;100820.50;5096255;28;20454;-71
2022/08/18 05:35:25;;;;;;;3.60;3.30;;;;;;;24.37;51.98;100825.44;5077939;28;20028;-71
2022/08/18 05:37:56;;;;;;;3.72;3.38;;;;;;;24.40;51.86;100821.31;5077677;28;20408;-72
2022/08/18 05:40:23;;;;;;;5.47;3.70;;;;;;;24.41;52.04;100831.19;5096109;28;20028;-71
2022/08/18 05:42:49;;;;;;;4.82;3.70;;;;;;;24.38;52.08;100829.78;5061927;28;20032;-72
2022/08/18 05:45:16;;;;;;;3.95;3.58;;;;;;;24.37;51.87;100830.91;5096460;28;20027;-72
2022/08/18 05:47:48;;;;;;;3.45;3.15;;;;;;;24.33;51.96;100829.78;5077941;28;20177;-72
2022/08/18 05:50:17;;;;;;;4.95;4.00;;;;;;;24.37;52.06;100837.16;5096088;28;20028;-71
2022/08/18 05:52:53;;;;;;;4.40;3.80;;;;;;;24.37;52.43;100841.81;5077839;28;20115;-71
2022/08/18 05:58:54;;;;;;;4.57;3.83;;;;;;;24.37;51.79;100844.56;4994265;28;20076;-70
2022/08/18 06:01:33;;;;;;;3.95;3.58;;;;;;;24.41;52.05;100847.56;5009440;28;20125;-71
2022/08/18 06:04:15;;;;;;;5.38;3.53;;;;;;;24.42;51.68;100847.28;4977519;28;20104;-70
2022/08/18 06:06:40;;;;;;;3.38;3.08;;;;;;;24.48;51.56;100848.94;4993632;28;20030;-70
2022/08/18 06:09:27;;;;;;;3.55;2.90;;;;;;;24.52;51.68;100850.03;4994001;28;20045;-71
2022/08/18 06:11:54;;;;;;;3.95;3.55;;;;;;;24.49;51.49;100850.59;4994025;28;20030;-70
2022/08/18 06:14:21;;;;;;;4.78;3.67;;;;;;;24.40;51.85;100852.19;4978070;28;20096;-72
2022/08/18 06:16:59;;;;;;;3.42;3.13;;;;;;;24.41;51.27;100859.31;4997978;28;20057;-70
2022/08/18 06:19:49;;;;;;;3.95;3.60;;;;;;;24.48;51.36;100854.41;4977552;28;20066;-70
2022/08/18 06:22:32;;;;;;;3.88;3.20;;;;;;;24.45;51.47;100854.94;4980141;28;20569;-71
2022/08/18 06:25:17;;;;;;;3.50;3.20;;;;;;;24.48;51.49;100859.88;4993461;28;20104;-71
2022/08/18 06:27:54;;;;;;;3.30;3.00;;;;;;;24.42;51.96;100855.47;4993717;28;20381;-72
2022/08/18 06:30:44;;;;;;;3.42;3.13;;;;;;;24.29;52.58;100861.44;4995114;28;20042;-72
2022/08/18 06:33:44;;;;;;;3.70;3.33;;;;;;;24.04;53.64;100859.44;4988859;28;20058;-71
2022/08/18 06:36:14;;;;;;;4.20;3.60;;;;;;;24.24;52.57;100855.97;5069357;28;20044;-71
2022/08/18 06:38:52;;;;;;;3.33;3.03;;;;;;;24.36;51.99;100856.56;5079227;28;20478;-73
2022/08/18 06:41:31;;;;;;;64.45;22.75;;;;;;;24.48;51.71;100853.59;5079535;28;20031;-72
2022/08/18 06:44:09;;;;;;;47.17;16.63;;;;;;;24.50;52.75;100849.47;5096510;28;20483;-72
2022/08/18 06:46:54;;;;;;;19.52;8.75;;;;;;;24.50;51.78;100846.75;5079358;28;20024;-72
2022/08/18 06:50:11;;;;;;;13.52;6.20;;;;;;;24.54;51.59;100847.06;5097039;28;20032;-71
2022/08/18 06:52:38;;;;;;;9.30;4.78;;;;;;;24.53;51.66;100846.22;5017185;28;20046;-72
2022/08/18 06:55:10;;;;;;;6.65;4.40;;;;;;;24.53;51.59;100840.75;5013262;28;20061;-72
2022/08/18 06:57:40;;;;;;;6.32;3.97;;;;;;;24.34;52.99;100845.09;4998154;28;20064;-72
2022/08/18 07:00:23;;;;;;;5.68;3.70;;;;;;;24.42;52.95;100836.34;4997210;28;20040;-70
2022/08/18 07:02:48;;;;;;;4.97;3.60;;;;;;;24.40;52.74;100841.25;4997069;28;20149;-71
2022/08/18 07:05:18;;;;;;;5.72;3.72;;;;;;;24.53;52.19;100835.28;5012482;28;20030;-72
2022/08/18 07:08:00;;;;;;;3.83;3.25;;;;;;;24.43;52.34;100824.34;5013253;28;20480;-71
2022/08/18 07:10:34;;;;;;;4.70;3.40;;;;;;;24.40;52.75;100824.88;4999465;28;20048;-72
2022/08/18 07:13:07;;;;;;;6.03;3.08;;;;;;;24.50;52.19;100824.06;5012713;28;20030;-72
2022/08/18 07:15:32;;;;;;;4.75;3.67;;;;;;;24.66;51.71;100827.69;5012076;28;20538;-71
2022/08/18 07:18:08;;;;;;;7.43;4.82;;;;;;;24.46;52.11;100839.38;4995331;28;20034;-72
2022/08/18 07:20:41;;;;;;;10.63;5.45;;;;;;;24.61;51.41;100846.81;4994950;28;20037;-73
2022/08/18 07:23:07;;;;;;;9.30;5.15;;;;;;;24.65;51.11;100850.66;5011667;28;20124;-72
2022/08/18 07:25:38;;;;;;;11.48;5.82;;;;;;;24.61;51.45;100853.09;5011193;28;20116;-72
2022/08/18 07:28:03;;;;;;;8.15;4.57;;;;;;;24.60;51.30;100858.84;5031164;28;20058;-69
2022/08/18 07:30:31;;;;;;;7.47;4.90;;;;;;;24.69;51.09;100862.66;5099543;28;20027;-72
2022/08/18 07:33:11;;;;;;;7.25;4.55;;;;;;;24.38;52.14;100855.19;5096709;28;20052;-70
2022/08/18 07:35:48;;;;;;;5.80;4.68;;;;;;;24.58;51.58;100858.25;5114008;28;20024;-72
2022/08/18 07:38:30;;;;;;;6.93;3.90;;;;;;;24.50;52.08;100873.25;5114338;28;20027;-72
2022/08/18 07:41:00;;;;;;;7.35;3.95;;;;;;;24.60;51.83;100869.78;5096024;28;20034;-72
2022/08/18 07:43:52;;;;;;;4.15;3.25;;;;;;;24.65;51.62;100875.25;5096118;28;20019;-71
2022/08/18 07:46:26;;;;;;;3.72;3.20;;;;;;;24.49;51.71;100871.59;5113693;28;20079;-70
2022/08/18 07:48:52;;;;;;;4.18;3.40;;;;;;;24.51;51.84;100874.91;5079244;28;20139;-70
2022/08/18 07:51:23;;;;;;;4.22;3.53;;;;;;;24.43;52.25;100878.97;5095256;28;20449;-69
2022/08/18 07:54:08;;;;;;;4.47;3.53;;;;;;;24.37;52.25;100869.94;5095354;28;20169;-69
2022/08/18 07:56:47;;;;;;;3.35;3.05;;;;;;;24.65;51.61;100869.78;5095393;28;20031;-69
2022/08/18 07:59:38;;;;;;;4.57;3.05;;;;;;;24.72;51.51;100875.81;5111815;28;20042;-70
2022/08/18 08:02:21;;;;;;;4.20;2.92;;;;;;;24.72;51.35;100875.81;5098946;28;20023;-70
2022/08/18 08:04:55;;;;;;;4.00;3.53;;;;;;;24.69;51.95;100881.81;5118250;28;20132;-72
2022/08/18 08:07:50;;;;;;;3.53;3.22;;;;;;;24.55;52.52;100881.50;5097290;28;20039;-72
2022/08/18 08:10:28;;;;;;;3.22;2.92;;;;;;;24.41;52.82;100881.16;5036884;28;20041;-71
2022/08/18 08:13:02;;;;;;;3.63;3.22;;;;;;;24.65;51.86;100886.19;5034581;28;20045;-71
2022/08/18 08:15:45;;;;;;;4.65;3.13;;;;;;;24.64;51.50;100885.34;5016510;28;20116;-70
2022/08/18 08:18:17;;;;;;;3.38;3.05;;;;;;;24.70;51.31;100883.47;5030451;28;20049;-70
2022/08/18 08:20:42;;;;;;;3.17;2.85;;;;;;;24.66;51.71;100887.81;5030340;28;20116;-71
2022/08/18 08:23:32;;;;;;;4.25;3.30;;;;;;;24.54;52.18;100885.31;5034541;28;20452;-70
2022/08/18 08:26:03;;;;;;;4.13;3.00;;;;;;;24.57;52.00;100890.25;5018709;28;20036;-71
2022/08/18 08:28:48;;;;;;;2.88;2.67;;;;;;;24.60;52.08;100884.25;5034590;28;20052;-71
2022/08/18 08:31:14;;;;;;;3.55;3.25;;;;;;;24.60;51.73;100883.44;4976900;28;20401;-70
2022/08/18 08:33:49;;;;;;;3.45;3.15;;;;;;;24.61;51.63;100882.31;4976833;28;20042;-70
2022/08/18 08:36:22;;;;;;;3.63;3.00;;;;;;;24.54;52.23;100880.69;4976858;28;20477;-71
2022/08/18 08:38:57;;;;;;;3.95;3.40;;;;;;;24.60;52.19;100883.44;4976264;28;20042;-70
2022/08/18 08:41:54;;;;;;;3.70;2.97;;;;;;;24.55;52.36;100886.97;4976728;28;20046;-70
2022/08/18 08:44:28;;;;;;;3.10;2.88;;;;;;;24.58;52.38;100880.13;4977679;28;20041;-71
2022/08/18 08:46:54;;;;;;;3.78;3.47;;;;;;;24.66;51.99;100882.34;5023421;28;20052;-71
2022/08/18 08:49:40;;;;;;;3.40;3.10;;;;;;;24.61;51.97;100887.78;5054739;28;20052;-71
2022/08/18 08:52:26;;;;;;;3.88;3.38;;;;;;;24.67;52.28;100878.53;5054200;28;20029;-70
2022/08/18 08:55:20;;;;;;;3.40;3.10;;;;;;;24.64;52.25;100879.06;5054224;28;20102;-70
2022/08/18 08:57:52;;;;;;;5.75;3.38;;;;;;;24.68;51.65;100878.25;5036704;28;20047;-70
2022/08/18 09:00:18;;;;;;;3.10;2.90;;;;;;;24.70;52.07;100884.28;5022057;28;20029;-70
2022/08/18 09:03:21;;;;;;;4.05;3.55;;;;;;;24.61;52.06;100883.16;5054549;28;20418;-70
2022/08/18 09:06:24;;;;;;;3.53;3.22;;;;;;;24.69;51.95;100887.28;5053790;28;20148;-70
2022/08/18 09:09:05;;;;;;;4.00;3.60;;;;;;;24.77;51.72;100886.75;5080505;28;20035;-70
2022/08/18 09:11:36;;;;;;;4.20;3.90;;;;;;;24.72;52.11;100886.72;5118245;28;20114;-69
2022/08/18 09:14:29;;;;;;;4.03;3.63;;;;;;;24.76;52.00;100881.53;5117357;28;20055;-71
2022/08/18 09:17:29;;;;;;;3.70;3.40;;;;;;;24.81;51.78;100884.28;5118016;28;20031;-72
2022/08/18 09:20:25;;;;;;;3.95;3.65;;;;;;;24.79;52.01;100881.81;5118177;28;20036;-71
2022/08/18 09:22:53;;;;;;;4.25;3.85;;;;;;;24.76;51.85;100885.09;5118160;28;20030;-70
2022/08/18 09:25:37;;;;;;;3.60;3.30;;;;;;;24.71;52.18;100882.34;5101051;28;20024;-71
2022/08/18 09:28:38;;;;;;;4.10;3.70;;;;;;;24.70;52.48;100883.47;5118874;28;20026;-70
2022/08/18 09:31:06;;;;;;;4.47;3.50;;;;;;;24.59;52.42;100882.59;5092015;28;20030;-70
2022/08/18 09:33:44;;;;;;;4.45;4.05;;;;;;;24.66;52.53;100888.63;5097260;28;20044;-70
2022/08/18 09:36:34;;;;;;;4.30;3.90;;;;;;;24.78;52.22;100891.09;5100136;28;20133;-71
2022/08/18 09:43:12;;;;;;;4.32;3.70;;;;;;;24.84;51.97;100897.41;5058213;28;20513;-70
2022/08/18 09:45:54;;;;;;;4.93;4.13;;;;;;;24.73;52.40;100891.09;5106662;28;20047;-71
2022/08/18 09:48:22;;;;;;;3.67;3.38;;;;;;;24.64;52.90;100892.72;5110220;28;20044;-70
2022/08/18 09:51:19;;;;;;;4.05;3.72;;;;;;;24.60;52.89;100889.72;5110069;28;20479;-70
2022/08/18 09:53:45;;;;;;;4.22;3.83;;;;;;;24.60;52.99;100883.44;5106362;28;20035;-70
2022/08/18 09:56:14;;;;;;;4.18;3.78;;;;;;;24.65;52.70;100887.00;5108123;28;20080;-70
2022/08/18 09:58:46;;;;;;;4.30;3.90;;;;;;;24.77;52.63;100894.94;5101333;28;20490;-71
2022/08/18 10:01:33;;;;;;;3.90;3.60;;;;;;;24.65;53.00;100891.66;5099104;28;20487;-70
2022/08/18 10:04:13;;;;;;;4.97;4.43;;;;;;;24.70;53.00;100900.66;5095778;28;20527;-70
2022/08/18 10:06:43;;;;;;;4.53;4.13;;;;;;;24.80;52.38;100891.69;5096050;28;20065;-70
2022/08/18 10:09:27;;;;;;;4.38;3.95;;;;;;;24.89;52.22;100898.25;5095513;28;20020;-71
2022/08/18 10:11:57;;;;;;;;;;;;;;;25.05;51.59;100892.78;5095972;28;20476;-70
2022/08/18 10:14:28;;;;;;;4.32;3.92;;;;;;;25.09;51.40;100893.88;5077042;28;20041;-70
2022/08/18 10:17:01;;;;;;;4.40;4.00;;;;;;;25.06;51.74;100886.22;5078044;28;20028;-70
2022/08/18 10:19:36;;;;;;;4.50;3.83;;;;;;;25.08;51.61;100889.53;5095453;28;20039;-70
2022/08/18 10:22:03;;;;;;;3.75;3.45;;;;;;;25.07;51.38;100891.41;5077448;28;20106;-71
2022/08/18 10:25:00;;;;;;;3.90;3.60;;;;;;;25.07;51.41;100893.34;5095456;28;20031;-70
2022/08/18 10:27:55;;;;;;;4.10;3.70;;;;;;;25.10;51.77;100888.13;5091532;28;20075;-70
2022/08/18 10:30:32;;;;;;;4.50;4.10;;;;;;;25.04;51.60;100880.19;4993633;28;20042;-71
2022/08/18 10:32:59;;;;;;;4.00;3.70;;;;;;;25.08;51.55;100890.31;4992958;28;20050;-70
2022/08/18 10:35:33;;;;;;;4.63;4.05;;;;;;;25.07;51.65;100894.16;4993126;28;20073;-70
2022/08/18 10:38:05;;;;;;;4.07;3.70;;;;;;;25.01;51.99;100897.13;4992869;28;20093;-70
2022/08/18 10:40:30;;;;;;;4.63;4.22;;;;;;;25.00;52.17;100896.34;4961259;28;20054;-70
2022/08/18 10:43:04;;;;;;;4.15;3.85;;;;;;;24.99;51.92;100891.97;4976969;28;20031;-71
2022/08/18 10:45:33;;;;;;;4.63;4.15;;;;;;;25.01;52.05;100897.97;4992905;28;20043;-71
2022/08/18 10:48:01;;;;;;;4.85;4.40;;;;;;;24.99;52.25;100904.81;4993254;28;20112;-70
2022/08/18 10:50:26;;;;;;;3.83;3.47;;;;;;;24.94;52.43;100900.16;4993137;28;20045;-70
2022/08/18 10:53:12;;;;;;;3.95;3.53;;;;;;;24.83;52.82;100910.25;4992311;28;20457;-69
2022/08/18 10:55:51;;;;;;;4.70;4.30;;;;;;;24.76;53.52;100904.22;4993240;28;20078;-70
2022/08/18 10:59:01;;;;;;;4.00;3.70;;;;;;;24.89;53.23;100903.72;4993313;28;20217;-69
2022/08/18 11:01:30;;;;;;;4.32;3.92;;;;;;;24.99;52.55;100908.38;4916068;29;20122;-70
2022/08/18 11:04:09;;;;;;;4.35;3.95;;;;;;;25.05;52.92;100901.00;4916955;29;20127;-70
2022/08/18 11:06:43;;;;;;;4.72;3.53;;;;;;;25.09;52.63;100896.59;4958432;28;20038;-70
2022/08/18 11:09:09;;;;;;;4.47;3.90;;;;;;;24.82;53.98;100894.09;5012452;28;20538;-70
2022/08/18 11:11:41;;;;;;;4.40;4.00;;;;;;;25.05;53.34;100901.00;5012051;28;20041;-70
2022/08/18 11:14:39;;;;;;;4.93;4.18;;;;;;;25.18;52.78;100896.88;4995962;28;20071;-70
2022/08/18 11:17:04;;;;;;;5.63;4.28;;;;;;;25.21;52.54;100899.09;4997356;28;20080;-70
2022/08/18 11:19:37;;;;;;;5.03;3.85;;;;;;;25.22;52.71;100896.06;5011857;28;20430;-70
2022/08/18 11:22:02;;;;;;;5.15;4.00;;;;;;;25.08;52.92;100892.25;5014348;28;20064;-70
2022/08/18 11:24:34;;;;;;;3.67;3.33;;;;;;;25.09;52.85;100897.44;5012872;28;20042;-70
2022/08/18 11:27:04;;;;;;;4.35;3.83;;;;;;;25.09;53.06;100902.09;5012271;28;20148;-70
2022/08/18 11:29:33;;;;;;;4.10;3.70;;;;;;;24.97;53.37;100896.88;4995666;28;20109;-70
2022/08/18 11:32:13;;;;;;;4.20;3.75;;;;;;;25.10;53.37;100892.78;4995001;28;20049;-70
2022/08/18 11:34:42;;;;;;;4.05;3.65;;;;;;;25.04;53.39;100891.97;4979826;28;20050;-70
2022/08/18 11:37:18;;;;;;;4.07;3.67;;;;;;;24.93;54.22;100891.13;4997848;28;20113;-71
2022/08/18 11:39:48;;;;;;;5.13;3.78;;;;;;;24.92;54.23;100897.72;5073364;28;20162;-71
2022/08/18 11:42:14;;;;;;;3.63;3.33;;;;;;;25.11;53.67;100887.06;5055822;28;20039;-69
2022/08/18 11:44:40;;;;;;;4.05;3.30;;;;;;;25.00;54.38;100893.59;5073086;28;20032;-70
2022/08/18 11:47:12;;;;;;;3.63;3.30;;;;;;;25.07;54.35;100882.41;5073266;28;20051;-70
2022/08/18 11:49:44;;;;;;;3.88;3.42;;;;;;;25.30;53.37;100892.81;5073589;28;20025;-71
2022/08/18 11:52:27;;;;;;;3.90;3.50;;;;;;;25.05;54.27;100892.78;5072841;28;20020;-71
2022/08/18 11:54:59;;;;;;;3.88;3.58;;;;;;;25.28;53.81;100895.03;5088323;28;20021;-70
2022/08/18 11:57:39;;;;;;;3.85;3.20;;;;;;;25.16;54.05;100888.13;5072164;28;20518;-70
2022/08/18 12:00:59;;;;;;;3.97;3.58;;;;;;;25.20;54.50;100889.22;5073873;28;20036;-70
2022/08/18 12:03:29;;;;;;;7.88;3.55;;;;;;;25.22;53.98;100890.59;5011600;28;20041;-70
2022/08/18 12:05:59;;;;;;;6.80;3.88;;;;;;;25.22;54.07;100887.88;5011853;28;20499;-72